Leming, Texas
Current Conditions -  °F | °C
As of 4:55 PM on Saturday 25 Oct 2014 (Local Time) from KPEZ Reporting Station
Clear Clear  
Wind Chill: 88°   Ceiling: Unl
Heat Index: 88°   Visibility: 10mi
Dew Point: 52°   Wind: 0mph
Humidity: 30%   Direction: NA
Pressure: 30.08"   Gusts: NA
Location:  29.07°N, 98.48°W
Report Text: KPEZ 252155Z AUTO 00000KT 10SM CLR 31/11 A3008 RMK AO2 T03100113
Loading
Personal Weather Stations






























Interactive Weather Map
Tropical Storm Tracking
New forecast layout! Learn more

10-Day Weather Forecast

Advertisements
Track Severe Weather on mobile